KSTS/STS METAR and TAF weather

Enter ICAO airport designator
Station Type Date Time Source
KSTS METAR 2018/12/13 20:53 UTC NOAA

KSTS 132053Z 00000KT 10SM CLR 15/04 A3019 RMK AO2 SLP217 T01500039 58034


Station Type Date Time Source
KSTS Decoded METAR 2018/12/13 20:53 UTC NOAA

SANTA ROSA SONOMA COUNTY, CA, United States (KSTS) 38-30N 122-49W 39M
Dec 13, 2018 - 03:53 PM EST / 2018.12.13 2053 UTC
Wind: Calm:0
Visibility: 10 mile(s):0
Sky conditions: clear
Temperature: 59.0 F (15.0 C)
Dew Point: 39.0 F (3.9 C)
Relative Humidity: 47%
Pressure (altimeter): 30.19 in. Hg (1022 hPa)
Pressure tendency: 0.10 inches (3.4 hPa) lower than three hours ago
ob: KSTS 132053Z 00000KT 10SM CLR 15/04 A3019 RMK AO2 SLP217 T01500039 58034
cycle: 21

Station Type Date Time Source
KSTS TAF 2018/12/13 18:30 UTC NOAA

TAF KSTS 131726Z 1318/1418 VRB04KT P6SM SKC
FM140400 14003KT P6SM SCT250
FM140800 00000KT 6SM BR SCT007 SCT040 BKN250
FM141500 VRB03KT 6SM -SHRA BR BKN006 BKN030


Example: see airport list